• Join FlightAware (Why Join?)
  • Login
  • US Flag 
10:54AM EDT


 

Airport Tracker/Info


-or-


 

Live Flight TrackerFlight Track Log ✈ ASQ4231 ✈ 03-Oct-2013 ✈ KIAH - KBTR

Flight Track Log - Related Links

Times and Time Zones

All times are in EDT time to prevent confusion due to time zone crossing. See the ASQ4231 flight status page for this flight to view local times or setup timezone preferences in your user account.

Time Position Orientation Groundspeed Altitude Reporting Facility
EDT Latitude Longitude Course Direction KTS MPH feet Rate Location/Type
11:41PM 29.9617 -95.3436 90° East 147 169 900  Level Houston Center
11:41PM 29.9547 -95.3347 132° Southeast 163 188 1,500 1,740 Climbing Houston Center
11:42PM 29.9275 -95.2972 130° Southeast 178 205 2,800 1,920 Climbing Houston Center
11:43PM 29.8839 -95.2342 129° Southeast 245 282 5,100 2,280 Climbing Houston Center
11:44PM 29.8383 -95.1700 129° Southeast 255 293 7,400 2,100 Climbing Houston Center
11:45PM 30.0627 -94.8031 90° East  Level Estimated
11:45PM 29.8489 -95.0806 82° East 278 320 9,400  Level Houston Center
11:46PM 30.0781 -94.6953 90° East  Level Estimated
11:46PM 29.8661 -94.9889 78° East 290 334 10,900  Level Houston Center
11:47PM 29.8867 -94.8822 77° East 333 383 11,600 840 Climbing Houston Center
11:48PM 29.9086 -94.7686 77° East 360 414 12,700 1,140 Climbing Houston Center
11:49PM 29.9308 -94.6506 78° East 367 422 13,900 1,080 Climbing Houston Center
11:50PM 29.9533 -94.5364 77° East 372 428 14,900 900 Climbing Houston Center
11:51PM 29.9719 -94.4361 78° East 375 432 15,800 1,080 Climbing Houston Center
11:52PM 29.9975 -94.2936 78° East 379 436 17,100 1,140 Climbing Houston Center
11:53PM 30.0131 -94.1719 82° East 382 440 18,100 900 Climbing Houston Center
11:54PM 30.0269 -94.0492 83° East 387 445 19,000 900 Climbing Houston Center
11:55PM 30.0428 -93.9267 81° East 388 447 20,000 960 Climbing Houston Center
11:56PM 30.0578 -93.8014 82° East 394 453 21,000 960 Climbing Houston Center
11:57PM 30.0725 -93.6761 82° East 396 456 22,000 900 Climbing Houston Center
11:58PM 30.0878 -93.5489 82° East 406 467 22,900 480 Climbing Houston Center
11:59PM 30.1019 -93.4203 83° East 407 468 23,000  Climbing Houston Center
12:00AM 30.1186 -93.2858 82° East 423 487 23,000  Level Houston Center
12:01AM 30.1353 -93.1453 82° East 442 509 23,000  Level Houston Center
12:02AM 30.1586 -93.0064 79° East 444 511 23,000  Level Houston Center
12:03AM 30.1864 -92.8661 77° East 449 517 23,000  Level Houston Center
12:04AM 30.2147 -92.7247 77° East 454 522 23,000  Level Houston Center
12:05AM 30.2425 -92.5817 77° East 457 526 23,000 -660 Level Houston Center
12:06AM 30.2742 -92.4133 78° East 449 517 21,700 -1,440 Descending Houston Center
12:07AM 30.2972 -92.2936 77° East 429 494 20,100 -1,740 Descending Houston Center
12:08AM 30.3217 -92.1697 77° East 406 467 18,300 -1,800 Descending Houston Center
12:09AM 30.3436 -92.0508 78° East 389 448 16,500 -1,680 Descending Houston Center
12:10AM 30.3669 -91.9333 77° East 379 436 15,000 -1,500 Descending Houston Center
12:11AM 30.3886 -91.8125 78° East 383 441 13,500 -1,620 Descending Houston Center
12:12AM 30.4139 -91.6772 78° East 389 448 11,800 -1,380 Descending Houston Center
12:13AM 30.4381 -91.5567 77° East 387 445 10,800 -960 Descending Houston Center
12:14AM 30.4567 -91.4550 78° East 334 384 9,900 -1,440 Descending Houston Center
12:15AM 30.4725 -91.3628 79° East 299 344 8,000 -1,740 Descending Houston Center
12:16AM 30.5100 -91.2878 60° Northeast 287 330 6,400 -1,860 Descending Houston Center
12:17AM 30.5556 -91.2264 49° Northeast 261 300 4,300 -1,740 Descending Houston Center
12:18AM 30.6042 -91.1672 46° Northeast 246 283 3,000 -660 Descending Houston Center
12:19AM 30.6431 -91.1225 45° Northeast 231 266 3,000 -60 Level Houston Center
12:20AM 30.6867 -91.0722 45° Northeast 225 259 2,900 -180 Descending Houston Center
12:21AM 30.7306 -91.0217 45° Northeast 225 259 2,700 -240 Descending Houston Center